Terminal Aerodrome Forecast
Issued by NWS Quad Cities IA IL

Home | Current Version | Previous Version | Text Only | Print | Product List | Glossary On
Versions: 1 2 3 4 5 6 7 8 9 10 11 12 13 14 15 16 17 18 19 20 21 22 23 24 25 26 27 28
006
FTUS43 KDVN 261730
TAFMLI
TAF
KMLI 261730Z 2618/2718 22010KT P6SM SCT040 BKN250
     FM270300 17005KT P6SM VCTS SCT050CB BKN100 PROB30 2704/2707 3SM
      TSRA BKN030CB
     FM270700 18008KT 4SM -TSRA BR OVC035CB
     FM271000 15005KT 5SM BR VCTS BKN060CB=

USA.gov is the U.S. government's official web portal to all federal, state and local government web resources and services.